createdAt,value
2018-09-26T00:00:12.491Z,8.84
2018-09-26T00:02:48.310Z,8.90
2018-09-26T00:05:21.103Z,8.98
2018-09-26T00:07:54.102Z,8.93
2018-09-26T00:10:24.098Z,8.89
2018-09-26T00:12:55.145Z,8.95
2018-09-26T00:15:26.817Z,8.94
2018-09-26T00:17:56.539Z,8.96
2018-09-26T00:20:26.709Z,8.89
2018-09-26T00:22:56.904Z,8.93
2018-09-26T00:25:29.495Z,8.95
2018-09-26T00:28:02.700Z,8.78
2018-09-26T00:30:37.132Z,8.75
2018-09-26T00:33:09.624Z,8.72
2018-09-26T00:35:40.701Z,8.64
2018-09-26T00:38:15.250Z,8.61
2018-09-26T00:40:45.383Z,8.57
2018-09-26T00:43:18.858Z,8.54
2018-09-26T00:45:50.256Z,8.42
2018-09-26T00:48:24.649Z,8.30
2018-09-26T00:50:56.732Z,8.23
2018-09-26T00:53:31.476Z,8.05
2018-09-26T00:56:04.981Z,7.90
2018-09-26T00:58:36.073Z,7.67
2018-09-26T01:01:06.682Z,7.52
2018-09-26T01:03:39.277Z,7.38
2018-09-26T01:06:11.078Z,7.25
2018-09-26T01:08:43.870Z,7.07
2018-09-26T01:11:13.803Z,6.93
2018-09-26T01:13:44.619Z,6.82
2018-09-26T01:16:17.193Z,6.79
2018-09-26T01:18:49.629Z,6.79
2018-09-26T01:21:23.755Z,6.65
2018-09-26T01:23:54.980Z,6.53
2018-09-26T01:26:25.888Z,6.55
2018-09-26T01:28:55.779Z,6.48
2018-09-26T01:31:29.782Z,6.40
2018-09-26T01:34:01.657Z,6.40
2018-09-26T01:36:32.200Z,6.37
2018-09-26T01:39:05.402Z,6.40
2018-09-26T01:41:37.071Z,6.42
2018-09-26T01:44:07.465Z,6.43
2018-09-26T01:46:39.593Z,6.34
2018-09-26T01:49:11.778Z,6.32
2018-09-26T01:51:44.074Z,6.42
2018-09-26T01:54:15.725Z,6.37
2018-09-26T01:56:47.727Z,6.40
2018-09-26T01:59:21.548Z,6.33
2018-09-26T02:01:54.826Z,6.31
2018-09-26T02:04:28.033Z,6.22
2018-09-26T02:07:00.113Z,6.20
2018-09-26T02:09:35.468Z,6.19
2018-09-26T02:12:10.300Z,6.21
2018-09-26T02:14:42.666Z,6.16
2018-09-26T02:17:14.525Z,6.13
2018-09-26T02:19:51.666Z,6.07
2018-09-26T02:22:25.587Z,6.02
2018-09-26T02:24:59.584Z,5.95
2018-09-26T02:27:39.907Z,5.99
2018-09-26T02:30:15.742Z,5.91
2018-09-26T02:32:50.982Z,5.91
2018-09-26T02:35:20.387Z,5.81
2018-09-26T02:37:53.136Z,5.74
2018-09-26T02:40:24.370Z,5.69
2018-09-26T02:43:00.772Z,5.68
2018-09-26T02:45:33.546Z,5.58
2018-09-26T02:48:09.611Z,5.59
2018-09-26T02:50:48.206Z,5.62
2018-09-26T02:53:22.536Z,5.52
2018-09-26T02:55:55.053Z,5.40
2018-09-26T02:58:28.709Z,5.46
2018-09-26T03:01:02.607Z,5.40
2018-09-26T03:03:36.015Z,5.35
2018-09-26T03:06:09.221Z,5.44
2018-09-26T03:08:41.595Z,5.51
2018-09-26T03:11:15.634Z,5.63
2018-09-26T03:13:48.292Z,5.67
2018-09-26T03:16:21.126Z,5.59
2018-09-26T03:18:53.200Z,5.65
2018-09-26T03:21:27.634Z,5.63
2018-09-26T03:23:59.813Z,5.63
2018-09-26T03:26:33.727Z,5.69
2018-09-26T03:29:06.632Z,5.75
2018-09-26T03:31:37.396Z,5.79
2018-09-26T03:34:08.039Z,5.78
2018-09-26T03:36:39.593Z,5.76
2018-09-26T03:39:11.786Z,5.87
2018-09-26T03:41:44.572Z,5.88
2018-09-26T03:44:15.258Z,5.91
2018-09-26T03:46:45.631Z,5.89
2018-09-26T03:49:18.550Z,5.84
2018-09-26T03:51:52.281Z,5.80
2018-09-26T03:54:22.399Z,5.88
2018-09-26T03:56:53.484Z,5.81
2018-09-26T03:59:24.103Z,5.69
2018-09-26T04:01:56.492Z,5.63
2018-09-26T04:04:28.450Z,5.59
2018-09-26T04:06:58.426Z,5.51
2018-09-26T04:09:31.146Z,5.47
2018-09-26T04:12:01.776Z,5.41
2018-09-26T04:14:34.930Z,5.33
2018-09-26T04:17:10.286Z,5.24
2018-09-26T04:19:41.444Z,5.16
2018-09-26T04:22:19.046Z,5.16
2018-09-26T04:25:02.784Z,5.16
2018-09-26T04:27:36.738Z,5.17
2018-09-26T04:30:08.803Z,5.13
2018-09-26T04:32:39.570Z,5.13
2018-09-26T04:35:13.168Z,5.17
2018-09-26T04:37:50.776Z,5.22
2018-09-26T04:40:23.565Z,5.13
2018-09-26T04:42:56.571Z,5.14
2018-09-26T04:45:30.463Z,5.08
2018-09-26T04:48:01.811Z,5.07
2018-09-26T04:50:35.672Z,5.03
2018-09-26T04:53:09.931Z,4.98
2018-09-26T04:55:46.863Z,4.95
2018-09-26T04:58:22.255Z,4.93
2018-09-26T05:00:55.012Z,4.90
2018-09-26T05:03:25.274Z,4.82
2018-09-26T05:05:58.854Z,4.85
2018-09-26T05:08:30.570Z,4.80
2018-09-26T05:11:03.363Z,4.79
2018-09-26T05:13:39.538Z,4.83
2018-09-26T05:16:16.026Z,4.80
2018-09-26T05:18:55.257Z,4.87
2018-09-26T05:21:28.449Z,4.86
2018-09-26T05:24:05.824Z,5.02
2018-09-26T05:26:40.204Z,5.09
2018-09-26T05:29:13.348Z,5.10
2018-09-26T05:31:46.233Z,5.17
2018-09-26T05:34:20.434Z,5.13
2018-09-26T05:36:54.662Z,5.14
2018-09-26T05:39:32.973Z,5.19
2018-09-26T05:42:05.959Z,5.33
2018-09-26T05:44:39.151Z,5.34
2018-09-26T05:47:16.950Z,5.35
2018-09-26T05:49:52.463Z,5.40
2018-09-26T05:52:26.281Z,5.53
2018-09-26T05:54:58.077Z,5.64
2018-09-26T05:57:33.591Z,5.85
2018-09-26T06:00:08.023Z,5.96
2018-09-26T06:02:37.734Z,6.07
2018-09-26T06:05:12.774Z,6.18
2018-09-26T06:07:47.662Z,6.31
2018-09-26T06:10:19.126Z,6.41
2018-09-26T06:12:57.773Z,6.57
2018-09-26T06:15:31.777Z,6.70
2018-09-26T06:18:04.881Z,6.72
2018-09-26T06:20:35.321Z,6.78
2018-09-26T06:23:06.931Z,6.83
2018-09-26T06:25:39.580Z,6.85
2018-09-26T06:28:16.882Z,6.97
2018-09-26T06:30:51.725Z,6.97
2018-09-26T06:33:33.530Z,7.00
2018-09-26T06:36:04.883Z,7.19
2018-09-26T06:38:37.250Z,7.30
2018-09-26T06:41:09.729Z,7.51
2018-09-26T06:43:42.769Z,7.71
2018-09-26T06:46:19.350Z,7.84
2018-09-26T06:48:52.350Z,8.06
2018-09-26T06:54:04.805Z,8.51
2018-09-26T06:56:36.874Z,8.79
2018-09-26T06:59:09.132Z,9.01
2018-09-26T07:01:42.064Z,9.31
2018-09-26T07:04:13.323Z,9.46
2018-09-26T07:06:45.094Z,9.56
2018-09-26T07:09:18.822Z,9.72
2018-09-26T07:11:49.457Z,9.96
2018-09-26T07:14:21.840Z,10.19
2018-09-26T07:17:00.269Z,10.23
2018-09-26T07:19:30.820Z,10.47
2018-09-26T07:22:05.169Z,10.63
2018-09-26T07:24:40.088Z,10.56
2018-09-26T07:27:13.086Z,10.57
2018-09-26T07:29:48.864Z,10.76
2018-09-26T07:32:21.741Z,10.88
2018-09-26T07:34:56.365Z,10.94
2018-09-26T07:37:29.659Z,11.09
2018-09-26T07:40:07.509Z,11.23
2018-09-26T07:42:40.100Z,11.47
2018-09-26T07:45:13.258Z,11.60
2018-09-26T07:47:48.570Z,11.62
2018-09-26T07:50:19.997Z,11.70
2018-09-26T07:52:51.475Z,11.85
2018-09-26T07:55:24.044Z,11.88
2018-09-26T07:57:55.143Z,11.94
2018-09-26T08:00:27.210Z,12.13
2018-09-26T08:02:58.776Z,12.24
2018-09-26T08:05:31.264Z,12.33
2018-09-26T08:08:05.913Z,12.37
2018-09-26T08:10:38.686Z,12.52
2018-09-26T08:13:11.773Z,12.64
2018-09-26T08:15:42.360Z,12.66
2018-09-26T08:18:15.473Z,13.30
2018-09-26T08:20:50.711Z,13.26
2018-09-26T08:23:25.131Z,13.45
2018-09-26T08:25:58.402Z,13.50
2018-09-26T08:28:34.220Z,13.62
2018-09-26T08:31:06.259Z,13.78
2018-09-26T08:33:40.219Z,14.02
2018-09-26T08:36:11.971Z,14.03
2018-09-26T08:38:44.461Z,13.96
2018-09-26T08:41:19.816Z,14.29
2018-09-26T08:43:57.224Z,14.66
2018-09-26T08:46:30.321Z,15.17
2018-09-26T08:49:03.210Z,15.01
2018-09-26T08:51:35.881Z,14.84
2018-09-26T08:54:07.068Z,14.72
2018-09-26T08:56:39.067Z,14.77
2018-09-26T08:59:09.977Z,14.82
2018-09-26T09:01:48.730Z,14.84
2018-09-26T09:04:20.896Z,15.03
2018-09-26T09:06:51.304Z,14.95
2018-09-26T09:09:21.971Z,15.12
2018-09-26T09:11:52.250Z,15.02
2018-09-26T09:14:24.160Z,15.00
2018-09-26T09:16:54.544Z,15.14
2018-09-26T09:19:29.182Z,15.10
2018-09-26T09:22:03.818Z,14.97
2018-09-26T09:24:34.975Z,15.11
2018-09-26T09:27:06.077Z,15.14
2018-09-26T09:29:37.002Z,15.15
2018-09-26T09:32:09.199Z,15.13
2018-09-26T09:34:42.364Z,15.33
2018-09-26T09:37:12.090Z,15.26
2018-09-26T09:39:51.440Z,15.43
2018-09-26T09:42:25.052Z,15.35
2018-09-26T09:44:57.432Z,15.39
2018-09-26T09:47:28.354Z,15.33
2018-09-26T09:49:58.218Z,15.34
2018-09-26T09:52:30.681Z,15.62
2018-09-26T09:55:04.318Z,15.73
2018-09-26T09:57:36.908Z,15.73
2018-09-26T10:00:10.007Z,15.76
2018-09-26T10:02:40.857Z,15.63
2018-09-26T10:05:14.461Z,15.73
2018-09-26T10:07:47.571Z,15.72
2018-09-26T10:10:19.209Z,15.95
2018-09-26T10:12:51.042Z,15.90
2018-09-26T10:15:24.112Z,16.34
2018-09-26T10:17:58.447Z,16.37
2018-09-26T10:20:31.855Z,16.30
2018-09-26T10:23:05.091Z,16.26
2018-09-26T10:25:35.791Z,16.22
2018-09-26T10:28:06.217Z,16.27
2018-09-26T10:30:40.511Z,16.42
2018-09-26T10:33:12.692Z,16.77
2018-09-26T10:35:46.167Z,16.98
2018-09-26T10:38:18.795Z,16.99
2018-09-26T10:40:51.107Z,17.25
2018-09-26T10:43:22.232Z,17.24
2018-09-26T10:45:51.808Z,17.10
2018-09-26T10:48:23.075Z,17.33
2018-09-26T10:50:54.845Z,17.42
2018-09-26T10:53:27.339Z,17.32
2018-09-26T10:55:58.421Z,17.25
2018-09-26T10:58:31.594Z,17.28
2018-09-26T11:01:05.652Z,17.24
2018-09-26T11:03:38.193Z,17.40
2018-09-26T11:06:08.206Z,17.22
2018-09-26T11:08:41.238Z,17.47
2018-09-26T11:11:12.393Z,17.76
2018-09-26T11:13:42.048Z,17.78
2018-09-26T11:16:12.797Z,17.89
2018-09-26T11:18:44.789Z,17.99
2018-09-26T11:21:18.290Z,18.14
2018-09-26T11:23:49.609Z,18.32
2018-09-26T11:26:25.893Z,18.06
2018-09-26T11:28:58.787Z,18.10
2018-09-26T11:31:31.880Z,18.13
2018-09-26T11:34:07.971Z,18.24
2018-09-26T11:36:40.140Z,17.85
2018-09-26T11:39:14.357Z,17.82
2018-09-26T11:41:45.361Z,18.00
2018-09-26T11:44:19.435Z,18.29
2018-09-26T11:46:52.385Z,18.38
2018-09-26T11:49:27.905Z,18.37
2018-09-26T11:52:03.084Z,18.51
2018-09-26T11:54:34.416Z,18.69
2018-09-26T11:57:05.410Z,18.53
2018-09-26T11:59:38.974Z,18.20
2018-09-26T12:02:16.879Z,18.36
2018-09-26T12:04:50.369Z,18.47
2018-09-26T12:07:24.285Z,18.49
2018-09-26T12:09:58.766Z,18.47
2018-09-26T12:12:30.025Z,18.45
2018-09-26T12:15:00.713Z,18.12
2018-09-26T12:17:31.618Z,18.36
2018-09-26T12:20:04.806Z,18.71
2018-09-26T12:22:36.918Z,18.59
2018-09-26T12:25:09.854Z,18.50
2018-09-26T12:27:43.497Z,18.51
2018-09-26T12:30:14.591Z,18.63
2018-09-26T12:32:47.167Z,18.85
2018-09-26T12:35:23.955Z,18.83
2018-09-26T12:37:56.587Z,18.77
2018-09-26T12:40:30.468Z,18.82
2018-09-26T12:43:02.893Z,18.73
2018-09-26T12:45:36.978Z,18.91
2018-09-26T12:48:11.330Z,18.95
2018-09-26T12:50:51.584Z,18.92
2018-09-26T12:53:24.723Z,18.71
2018-09-26T12:55:56.138Z,18.58
2018-09-26T12:58:27.731Z,18.58
2018-09-26T13:00:58.526Z,18.78
2018-09-26T13:03:29.148Z,18.75
2018-09-26T13:06:02.005Z,18.87
2018-09-26T13:08:37.229Z,19.06
2018-09-26T13:11:09.951Z,19.05
2018-09-26T13:13:41.409Z,19.02
2018-09-26T13:16:13.847Z,19.11
2018-09-26T13:18:47.094Z,19.16
2018-09-26T13:21:20.617Z,19.12
2018-09-26T13:23:52.944Z,19.16
2018-09-26T13:26:24.942Z,19.25
2018-09-26T13:28:57.161Z,19.24
2018-09-26T13:31:28.051Z,19.26
2018-09-26T13:33:58.940Z,19.23
2018-09-26T13:36:30.540Z,19.30
2018-09-26T13:39:06.845Z,19.40
2018-09-26T13:41:38.372Z,19.33
2018-09-26T13:44:10.741Z,19.48
2018-09-26T13:46:42.396Z,19.21
2018-09-26T13:49:15.423Z,19.00
2018-09-26T13:51:50.621Z,19.00
2018-09-26T13:54:25.136Z,18.91
2018-09-26T13:57:02.457Z,18.87
2018-09-26T13:59:34.535Z,18.74
2018-09-26T14:02:07.220Z,18.99
2018-09-26T14:04:38.544Z,19.09
2018-09-26T14:07:10.519Z,19.17
2018-09-26T14:09:43.721Z,19.15
2018-09-26T14:12:14.418Z,19.06
2018-09-26T14:14:51.131Z,19.03
2018-09-26T14:17:23.709Z,18.95
2018-09-26T14:19:57.001Z,19.01
2018-09-26T14:22:30.885Z,19.21
2018-09-26T14:25:00.649Z,19.18
2018-09-26T14:27:32.741Z,18.80
2018-09-26T14:30:08.517Z,18.62
2018-09-26T14:32:39.904Z,18.54
2018-09-26T14:35:18.835Z,18.63
2018-09-26T14:37:51.944Z,18.80
2018-09-26T14:40:23.664Z,18.60
2018-09-26T14:42:54.002Z,18.68
2018-09-26T14:45:30.500Z,18.65
2018-09-26T14:48:03.334Z,18.43
2018-09-26T14:50:35.050Z,18.38
2018-09-26T14:53:08.407Z,18.58
2018-09-26T14:55:42.076Z,18.80
2018-09-26T14:58:13.838Z,18.78
2018-09-26T15:00:47.499Z,18.85
2018-09-26T15:03:18.312Z,18.97
2018-09-26T15:05:52.448Z,18.98
2018-09-26T15:08:25.566Z,18.84
2018-09-26T15:10:59.153Z,18.72
2018-09-26T15:13:36.198Z,18.65
2018-09-26T15:16:09.504Z,18.67
2018-09-26T15:18:41.377Z,18.73
2018-09-26T15:21:14.581Z,18.70
2018-09-26T15:23:52.816Z,18.88
2018-09-26T15:26:30.774Z,18.75
2018-09-26T15:29:02.783Z,18.74
2018-09-26T15:31:36.223Z,18.42
2018-09-26T15:34:10.393Z,18.36
2018-09-26T15:36:44.031Z,18.33
2018-09-26T15:39:17.209Z,18.26
2018-09-26T15:41:50.072Z,18.23
2018-09-26T15:44:21.752Z,18.22
2018-09-26T15:46:55.389Z,18.08
2018-09-26T15:49:26.879Z,17.89
2018-09-26T15:52:00.952Z,17.94
2018-09-26T15:54:32.546Z,17.87
2018-09-26T15:57:04.671Z,17.76
2018-09-26T15:59:38.492Z,17.75
2018-09-26T16:02:08.492Z,17.54
2018-09-26T16:04:41.324Z,17.38
2018-09-26T16:07:18.778Z,17.25
2018-09-26T16:09:52.346Z,17.15
2018-09-26T16:12:24.222Z,17.09
2018-09-26T16:14:56.344Z,16.92
2018-09-26T16:17:29.520Z,16.76
2018-09-26T16:20:02.344Z,16.56
2018-09-26T16:22:35.322Z,16.40
2018-09-26T16:25:07.063Z,16.19
2018-09-26T16:27:40.020Z,16.07
2018-09-26T16:30:13.577Z,15.91
2018-09-26T16:32:44.570Z,15.77
2018-09-26T16:35:17.112Z,15.55
2018-09-26T16:37:50.850Z,15.35
2018-09-26T16:40:31.261Z,15.19
2018-09-26T16:43:03.032Z,15.04
2018-09-26T16:45:33.905Z,14.86
2018-09-26T16:48:08.140Z,14.63
2018-09-26T16:50:40.594Z,14.46
2018-09-26T16:53:13.947Z,14.36
2018-09-26T16:55:46.638Z,14.21
2018-09-26T16:58:18.209Z,14.02
2018-09-26T17:00:53.357Z,14.02
2018-09-26T17:03:27.605Z,13.94
2018-09-26T17:05:58.089Z,13.74
2018-09-26T17:08:34.161Z,13.55
2018-09-26T17:11:07.469Z,13.30
2018-09-26T17:13:37.642Z,13.07
2018-09-26T17:16:10.607Z,12.88
2018-09-26T17:18:42.966Z,12.82
2018-09-26T17:21:12.813Z,12.58
2018-09-26T17:23:44.074Z,12.39
2018-09-26T17:26:17.823Z,12.23
2018-09-26T17:28:51.424Z,12.04
2018-09-26T17:31:24.031Z,11.96
2018-09-26T17:33:56.174Z,11.94
2018-09-26T17:36:26.551Z,11.82
2018-09-26T17:39:00.005Z,11.77
2018-09-26T17:41:33.946Z,11.61
2018-09-26T17:44:09.748Z,11.44
2018-09-26T17:46:47.458Z,11.28
2018-09-26T17:49:18.090Z,11.27
2018-09-26T17:51:50.020Z,11.30
2018-09-26T17:54:21.561Z,11.19
2018-09-26T17:56:52.971Z,11.17
2018-09-26T17:59:25.662Z,10.99
2018-09-26T18:02:02.866Z,10.85
2018-09-26T18:04:35.655Z,10.78
2018-09-26T18:07:07.311Z,10.73
2018-09-26T18:09:39.276Z,10.70
2018-09-26T18:12:12.056Z,10.65
2018-09-26T18:14:43.877Z,10.56
2018-09-26T18:17:16.882Z,10.44
2018-09-26T18:19:48.471Z,10.31
2018-09-26T18:22:21.062Z,10.36
2018-09-26T18:24:53.297Z,10.32
2018-09-26T18:27:24.434Z,10.19
2018-09-26T18:29:55.350Z,10.27
2018-09-26T18:32:25.656Z,10.23
2018-09-26T18:35:00.911Z,10.12
2018-09-26T18:37:36.039Z,10.08
2018-09-26T18:40:08.754Z,10.03
2018-09-26T18:42:39.327Z,10.11
2018-09-26T18:45:13.678Z,9.99
2018-09-26T18:47:45.246Z,9.88
2018-09-26T18:50:17.712Z,9.86
2018-09-26T18:52:52.452Z,9.85
2018-09-26T18:55:24.505Z,9.79
2018-09-26T18:57:58.471Z,9.91
2018-09-26T19:00:30.499Z,9.86
2018-09-26T19:03:03.018Z,9.74
2018-09-26T19:05:36.326Z,9.67
2018-09-26T19:08:08.785Z,9.67
2018-09-26T19:10:43.834Z,9.72
2018-09-26T19:13:16.322Z,9.70
2018-09-26T19:15:48.724Z,9.71
2018-09-26T19:18:19.749Z,9.63
2018-09-26T19:20:51.831Z,9.61
2018-09-26T19:23:26.147Z,9.85
2018-09-26T19:26:01.386Z,10.00
2018-09-26T19:28:32.580Z,10.02
2018-09-26T19:31:04.695Z,10.07
2018-09-26T19:33:39.300Z,9.97
2018-09-26T19:36:15.996Z,9.85
2018-09-26T19:38:50.557Z,9.79
2018-09-26T19:41:25.466Z,9.76
2018-09-26T19:43:57.287Z,9.72
2018-09-26T19:46:28.604Z,9.65
2018-09-26T19:49:05.016Z,9.63
2018-09-26T19:51:39.620Z,9.67
2018-09-26T19:54:12.426Z,9.59
2018-09-26T19:56:46.625Z,9.52
2018-09-26T19:59:20.442Z,9.56
2018-09-26T20:01:51.964Z,9.44
2018-09-26T20:04:28.536Z,9.32
2018-09-26T20:07:02.635Z,9.23
2018-09-26T20:09:36.688Z,9.26
2018-09-26T20:12:09.167Z,9.30
2018-09-26T20:14:40.025Z,9.25
2018-09-26T20:17:13.909Z,9.31
2018-09-26T20:19:44.566Z,9.25
2018-09-26T20:22:16.034Z,9.12
2018-09-26T20:24:46.726Z,9.10
2018-09-26T20:27:17.848Z,9.07
2018-09-26T20:29:55.455Z,9.05
2018-09-26T20:32:27.814Z,9.06
2018-09-26T20:35:02.804Z,9.05
2018-09-26T20:37:34.214Z,9.29
2018-09-26T20:40:05.481Z,9.16
2018-09-26T20:42:37.677Z,9.11
2018-09-26T20:45:11.926Z,9.05
2018-09-26T20:47:46.059Z,9.09
2018-09-26T20:50:18.727Z,9.11
2018-09-26T20:52:53.050Z,9.40
2018-09-26T20:55:24.267Z,9.31
2018-09-26T20:57:54.621Z,9.19
2018-09-26T21:00:27.232Z,9.31
2018-09-26T21:03:03.420Z,9.15
2018-09-26T21:05:33.757Z,9.13
2018-09-26T21:08:08.202Z,9.03
2018-09-26T21:10:40.448Z,9.03
2018-09-26T21:13:19.910Z,8.95
2018-09-26T21:15:51.460Z,8.94
2018-09-26T21:18:24.550Z,8.90
2018-09-26T21:20:58.212Z,9.05
2018-09-26T21:23:31.315Z,9.32
2018-09-26T21:26:05.371Z,9.54
2018-09-26T21:28:36.597Z,9.68
2018-09-26T21:31:08.575Z,9.73
2018-09-26T21:33:40.627Z,9.67
2018-09-26T21:36:14.639Z,9.47
2018-09-26T21:38:47.473Z,9.37
2018-09-26T21:41:21.631Z,9.33
2018-09-26T21:43:55.928Z,9.13
2018-09-26T21:46:32.194Z,8.99
2018-09-26T21:49:04.177Z,9.12
2018-09-26T21:51:40.958Z,9.21
2018-09-26T21:54:12.335Z,9.26
2018-09-26T21:56:45.802Z,9.14
2018-09-26T21:59:20.528Z,9.18
2018-09-26T22:01:55.430Z,9.27
2018-09-26T22:04:30.285Z,9.62
2018-09-26T22:07:04.296Z,9.64
2018-09-26T22:09:39.002Z,9.54
2018-09-26T22:12:10.673Z,9.36
2018-09-26T22:14:43.401Z,9.25
2018-09-26T22:17:16.482Z,9.48
2018-09-26T22:19:53.904Z,9.44
2018-09-26T22:22:29.257Z,9.38
2018-09-26T22:25:05.009Z,9.23
2018-09-26T22:27:36.269Z,9.08
2018-09-26T22:30:15.097Z,9.00
2018-09-26T22:32:54.735Z,9.07
2018-09-26T22:35:29.668Z,9.00
2018-09-26T22:38:02.457Z,8.88
2018-09-26T22:40:37.668Z,8.73
2018-09-26T22:43:19.589Z,8.67
2018-09-26T22:45:56.051Z,8.71
2018-09-26T22:48:33.236Z,8.65
2018-09-26T22:51:05.857Z,8.59
2018-09-26T22:53:38.132Z,8.54
2018-09-26T22:56:13.428Z,8.64
2018-09-26T22:58:47.644Z,8.83
2018-09-26T23:01:22.459Z,9.13
2018-09-26T23:03:55.046Z,9.14
2018-09-26T23:06:28.342Z,9.04
2018-09-26T23:09:02.350Z,8.88
2018-09-26T23:11:36.093Z,8.81
2018-09-26T23:14:08.269Z,8.92
2018-09-26T23:16:39.033Z,8.80
2018-09-26T23:19:13.252Z,8.70
2018-09-26T23:21:46.763Z,8.76
2018-09-26T23:24:19.549Z,8.77
2018-09-26T23:26:57.199Z,8.69
2018-09-26T23:29:37.093Z,8.79
2018-09-26T23:32:11.564Z,8.86
2018-09-26T23:34:45.604Z,8.87
2018-09-26T23:37:26.372Z,8.82
2018-09-26T23:40:00.091Z,8.89
2018-09-26T23:42:33.594Z,8.89
2018-09-26T23:45:04.328Z,8.87
2018-09-26T23:47:36.527Z,8.85
2018-09-26T23:50:08.563Z,8.94
2018-09-26T23:52:40.481Z,8.89
2018-09-26T23:55:13.698Z,8.82
2018-09-26T23:57:50.474Z,8.80
